createdAt,value
2023-03-12T00:00:58.274Z,1.17
2023-03-12T00:03:26.506Z,1.13
2023-03-12T00:05:55.858Z,1.27
2023-03-12T00:08:23.942Z,1.20
2023-03-12T00:10:53.480Z,1.05
2023-03-12T00:13:21.825Z,1.27
2023-03-12T00:15:49.985Z,1.30
2023-03-12T00:18:18.189Z,1.00
2023-03-12T00:20:54.744Z,1.00
2023-03-12T00:23:22.882Z,1.08
2023-03-12T00:25:51.184Z,1.02
2023-03-12T00:28:20.778Z,1.40
2023-03-12T00:30:48.841Z,1.20
2023-03-12T00:33:16.872Z,1.20
2023-03-12T00:35:45.076Z,1.30
2023-03-12T00:38:13.372Z,1.15
2023-03-12T00:40:41.670Z,1.27
2023-03-12T00:43:09.858Z,1.10
2023-03-12T00:45:39.409Z,1.10
2023-03-12T00:48:07.985Z,1.02
2023-03-12T00:50:36.224Z,1.30
2023-03-12T00:53:04.322Z,1.38
2023-03-12T00:55:32.432Z,1.23
2023-03-12T00:58:01.487Z,1.20
2023-03-12T01:00:29.928Z,1.15
2023-03-12T01:02:59.864Z,1.08
2023-03-12T01:05:28.277Z,1.30
2023-03-12T01:07:56.679Z,1.33
2023-03-12T01:10:25.007Z,1.33
2023-03-12T01:12:53.120Z,1.17
2023-03-12T01:15:22.843Z,1.30
2023-03-12T01:17:51.573Z,1.20
2023-03-12T01:20:23.307Z,1.10
2023-03-12T01:22:51.991Z,1.10
2023-03-12T01:25:20.263Z,1.00
2023-03-12T01:27:48.458Z,0.90
2023-03-12T01:30:16.876Z,1.13
2023-03-12T01:32:45.029Z,1.10
2023-03-12T01:35:13.333Z,1.05
2023-03-12T01:37:42.747Z,1.17
2023-03-12T01:40:16.011Z,1.30
2023-03-12T01:42:44.144Z,1.17
2023-03-12T01:45:45.364Z,0.90
2023-03-12T01:48:13.479Z,1.10
2023-03-12T01:50:44.051Z,1.20
2023-03-12T01:53:13.922Z,1.10
2023-03-12T01:55:42.449Z,1.10
2023-03-12T01:58:11.083Z,1.15
2023-03-12T02:00:41.304Z,1.08
2023-03-12T02:03:10.121Z,1.35
2023-03-12T02:05:44.506Z,1.00
2023-03-12T02:08:15.894Z,1.10
2023-03-12T02:10:44.772Z,1.25
2023-03-12T02:13:13.746Z,1.20
2023-03-12T02:15:42.177Z,1.20
2023-03-12T02:18:14.710Z,1.27
2023-03-12T02:20:50.894Z,1.15
2023-03-12T02:23:30.041Z,1.30
2023-03-12T02:26:01.068Z,1.17
2023-03-12T02:28:31.114Z,1.10
2023-03-12T02:31:03.623Z,1.20
2023-03-12T02:33:31.804Z,1.27
2023-03-12T02:35:59.863Z,1.20
2023-03-12T02:38:38.624Z,1.23
2023-03-12T02:41:13.732Z,1.10
2023-03-12T02:43:42.376Z,1.10
2023-03-12T02:46:11.092Z,0.90
2023-03-12T02:48:39.209Z,1.25
2023-03-12T02:51:07.837Z,1.10
2023-03-12T02:53:35.956Z,1.05
2023-03-12T02:56:04.155Z,1.10
2023-03-12T02:58:33.604Z,1.20
2023-03-12T03:01:02.052Z,1.20
2023-03-12T03:03:30.370Z,1.40
2023-03-12T03:05:58.457Z,1.20
2023-03-12T03:08:26.807Z,1.30
2023-03-12T03:10:55.253Z,1.10
2023-03-12T03:13:23.507Z,1.30
2023-03-12T03:15:53.085Z,1.30
2023-03-12T03:18:21.155Z,1.30
2023-03-12T03:20:56.319Z,1.10
2023-03-12T03:23:24.946Z,1.23
2023-03-12T03:25:53.819Z,1.30
2023-03-12T03:28:23.881Z,1.40
2023-03-12T03:30:55.363Z,1.35
2023-03-12T03:33:23.533Z,1.35
2023-03-12T03:35:52.020Z,1.23
2023-03-12T03:38:20.197Z,1.38
2023-03-12T03:40:48.328Z,1.25
2023-03-12T03:43:16.491Z,1.02
2023-03-12T03:45:45.478Z,1.20
2023-03-12T03:48:15.896Z,1.30
2023-03-12T03:50:43.990Z,1.40
2023-03-12T03:53:12.695Z,1.35
2023-03-12T03:55:41.349Z,1.48
2023-03-12T03:58:09.433Z,1.65
2023-03-12T04:00:37.573Z,1.52
2023-03-12T04:03:05.888Z,1.35
2023-03-12T04:05:35.457Z,1.23
2023-03-12T04:08:03.547Z,1.50
2023-03-12T04:10:31.840Z,1.40
2023-03-12T04:12:59.940Z,1.50
2023-03-12T04:15:28.033Z,1.50
2023-03-12T04:17:56.212Z,1.60
2023-03-12T04:20:24.658Z,1.38
2023-03-12T04:22:54.125Z,1.48
2023-03-12T04:25:22.241Z,1.27
2023-03-12T04:27:50.309Z,1.40
2023-03-12T04:30:19.028Z,1.80
2023-03-12T04:32:47.238Z,1.45
2023-03-12T04:35:15.425Z,1.60
2023-03-12T04:37:43.467Z,1.50
2023-03-12T04:40:15.432Z,1.58
2023-03-12T04:42:43.789Z,1.60
2023-03-12T04:45:13.126Z,1.52
2023-03-12T04:47:41.191Z,1.73
2023-03-12T04:50:10.884Z,1.40
2023-03-12T04:52:39.792Z,1.50
2023-03-12T04:55:09.305Z,1.40
2023-03-12T04:57:38.785Z,1.73
2023-03-12T05:00:10.911Z,1.40
2023-03-12T05:02:39.177Z,1.40
2023-03-12T05:05:08.028Z,1.67
2023-03-12T05:07:36.093Z,1.55
2023-03-12T05:10:04.434Z,1.58
2023-03-12T05:12:33.798Z,1.60
2023-03-12T05:15:03.286Z,1.60
2023-03-12T05:17:31.408Z,1.65
2023-03-12T05:19:59.544Z,1.45
2023-03-12T05:22:27.808Z,1.60
2023-03-12T05:24:59.020Z,1.70
2023-03-12T05:27:27.161Z,1.80
2023-03-12T05:29:55.289Z,1.92
2023-03-12T05:32:24.927Z,1.75
2023-03-12T05:34:53.015Z,1.77
2023-03-12T05:37:21.077Z,2.00
2023-03-12T05:39:49.124Z,1.83
2023-03-12T05:42:17.293Z,1.70
2023-03-12T05:44:45.300Z,2.17
2023-03-12T05:47:13.410Z,1.90
2023-03-12T05:49:44.271Z,1.98
2023-03-12T05:52:12.886Z,1.98
2023-03-12T05:54:40.888Z,2.10
2023-03-12T05:57:09.012Z,1.90
2023-03-12T05:59:37.123Z,1.92
2023-03-12T06:02:05.343Z,2.05
2023-03-12T06:04:33.476Z,1.92
2023-03-12T06:07:02.894Z,2.10
2023-03-12T06:09:31.033Z,1.88
2023-03-12T06:11:59.278Z,1.85
2023-03-12T06:14:27.268Z,2.00
2023-03-12T06:16:56.662Z,1.73
2023-03-12T06:19:24.829Z,1.80
2023-03-12T06:21:52.936Z,1.90
2023-03-12T06:24:22.399Z,1.80
2023-03-12T06:26:50.583Z,1.80
2023-03-12T06:29:18.838Z,1.60
2023-03-12T06:31:48.238Z,1.80
2023-03-12T06:34:16.847Z,1.92
2023-03-12T06:36:45.337Z,1.98
2023-03-12T06:39:13.482Z,1.50
2023-03-12T06:41:42.927Z,1.90
2023-03-12T06:44:10.996Z,1.80
2023-03-12T06:46:39.283Z,1.70
2023-03-12T06:49:08.046Z,1.90
2023-03-12T06:51:36.518Z,1.83
2023-03-12T06:54:05.102Z,1.83
2023-03-12T06:56:33.544Z,1.70
2023-03-12T06:59:03.058Z,1.95
2023-03-12T07:01:31.437Z,1.65
2023-03-12T07:03:59.530Z,1.77
2023-03-12T07:06:27.725Z,1.88
2023-03-12T07:08:55.876Z,1.83
2023-03-12T07:11:23.894Z,1.77
2023-03-12T07:13:52.648Z,2.05
2023-03-12T07:16:22.343Z,1.90
2023-03-12T07:18:50.548Z,1.98
2023-03-12T07:21:22.768Z,1.67
2023-03-12T07:23:50.974Z,1.90
2023-03-12T07:26:19.086Z,2.05
2023-03-12T07:28:47.667Z,1.73
2023-03-12T07:31:15.874Z,1.80
2023-03-12T07:33:45.551Z,2.00
2023-03-12T07:36:13.919Z,1.70
2023-03-12T07:38:42.018Z,1.80
2023-03-12T07:41:10.320Z,2.10
2023-03-12T07:43:38.533Z,2.00
2023-03-12T07:46:06.690Z,2.00
2023-03-12T07:48:34.834Z,1.92
2023-03-12T07:51:04.507Z,1.95
2023-03-12T07:53:32.821Z,2.08
2023-03-12T07:56:01.750Z,2.03
2023-03-12T07:58:30.106Z,1.92
2023-03-12T08:00:58.335Z,1.98
2023-03-12T08:03:26.727Z,2.28
2023-03-12T08:05:59.855Z,2.03
2023-03-12T08:10:59.300Z,1.98
2023-03-12T08:13:27.749Z,2.30
2023-03-12T08:15:55.961Z,1.75
2023-03-12T08:18:25.000Z,2.00
2023-03-12T08:20:53.954Z,1.85
2023-03-12T08:23:23.153Z,2.05
2023-03-12T08:25:52.685Z,2.15
2023-03-12T08:28:22.257Z,1.85
2023-03-12T08:30:52.514Z,1.73
2023-03-12T08:33:23.599Z,2.05
2023-03-12T08:35:52.593Z,2.15
2023-03-12T08:38:21.306Z,1.83
2023-03-12T08:40:57.993Z,1.98
2023-03-12T08:43:29.062Z,1.75
2023-03-12T08:45:57.554Z,1.80
2023-03-12T08:48:25.728Z,2.10
2023-03-12T08:50:56.468Z,1.85
2023-03-12T08:53:25.004Z,1.85
2023-03-12T08:55:54.143Z,2.00
2023-03-12T08:58:24.899Z,1.60
2023-03-12T09:00:53.794Z,1.90
2023-03-12T09:03:22.421Z,1.90
2023-03-12T09:05:51.737Z,1.90
2023-03-12T09:08:19.875Z,1.85
2023-03-12T09:10:51.135Z,2.00
2023-03-12T09:13:19.631Z,1.90
2023-03-12T09:15:49.110Z,2.05
2023-03-12T09:18:17.352Z,1.83
2023-03-12T09:20:45.430Z,2.13
2023-03-12T09:23:13.590Z,1.92
2023-03-12T09:25:41.719Z,1.83
2023-03-12T09:28:10.014Z,2.00
2023-03-12T09:30:38.144Z,1.67
2023-03-12T09:33:07.747Z,1.98
2023-03-12T09:35:36.471Z,2.08
2023-03-12T09:38:05.256Z,1.80
2023-03-12T09:40:37.277Z,1.90
2023-03-12T09:43:11.371Z,1.80
2023-03-12T09:45:44.494Z,1.80
2023-03-12T09:48:18.143Z,1.70
2023-03-12T09:50:48.842Z,1.63
2023-03-12T09:53:27.217Z,1.73
2023-03-12T09:55:58.205Z,1.67
2023-03-12T09:58:30.459Z,1.50
2023-03-12T10:01:03.099Z,1.50
2023-03-12T10:03:53.214Z,1.60
2023-03-12T10:06:25.706Z,2.00
2023-03-12T10:09:04.818Z,1.67
2023-03-12T10:11:44.748Z,1.55
2023-03-12T10:14:24.524Z,1.60
2023-03-12T10:17:04.505Z,1.67
2023-03-12T10:19:44.658Z,1.70
2023-03-12T10:22:22.527Z,1.50
2023-03-12T10:25:02.364Z,1.80
2023-03-12T10:27:37.052Z,1.90
2023-03-12T10:30:14.166Z,1.60
2023-03-12T10:32:45.325Z,1.85
2023-03-12T10:35:21.731Z,1.90
2023-03-12T10:37:53.118Z,1.65
2023-03-12T10:40:24.092Z,1.75
2023-03-12T10:42:55.814Z,1.70
2023-03-12T10:45:32.922Z,1.70
2023-03-12T10:48:04.140Z,1.60
2023-03-12T10:50:36.205Z,1.60
2023-03-12T10:53:28.509Z,1.75
2023-03-12T10:56:03.133Z,1.70
2023-03-12T10:58:37.544Z,1.73
2023-03-12T11:01:13.052Z,1.80
2023-03-12T11:03:42.572Z,1.60
2023-03-12T11:06:22.784Z,1.50
2023-03-12T11:09:16.135Z,1.75
2023-03-12T11:11:47.645Z,1.60
2023-03-12T11:14:19.674Z,1.60
2023-03-12T11:16:47.784Z,1.52
2023-03-12T11:19:28.776Z,1.80
2023-03-12T11:22:02.355Z,1.52
2023-03-12T11:24:30.563Z,1.77
2023-03-12T11:27:03.897Z,1.58
2023-03-12T11:29:36.428Z,1.48
2023-03-12T11:32:16.552Z,1.90
2023-03-12T11:34:47.667Z,1.65
2023-03-12T11:37:24.860Z,1.33
2023-03-12T11:40:13.938Z,1.63
2023-03-12T11:42:59.892Z,1.50
2023-03-12T11:45:32.854Z,1.67
2023-03-12T11:48:15.880Z,1.58
2023-03-12T11:50:55.990Z,1.40
2023-03-12T11:53:54.213Z,1.50
2023-03-12T11:56:30.194Z,1.40
2023-03-12T11:59:12.375Z,1.40
2023-03-12T12:01:55.613Z,1.52
2023-03-12T12:04:49.337Z,1.55
2023-03-12T12:07:24.924Z,1.55
2023-03-12T12:10:00.066Z,1.60
2023-03-12T12:12:43.329Z,1.40
2023-03-12T12:15:19.683Z,1.42
2023-03-12T12:17:57.838Z,1.40
2023-03-12T12:20:35.265Z,1.40
2023-03-12T12:23:16.334Z,1.42
2023-03-12T12:26:00.317Z,1.52
2023-03-12T12:29:03.543Z,1.60
2023-03-12T12:31:37.291Z,1.33
2023-03-12T12:34:33.285Z,1.33
2023-03-12T12:37:15.976Z,1.20
2023-03-12T12:39:49.667Z,1.20
2023-03-12T12:42:24.205Z,1.20
2023-03-12T12:44:54.693Z,1.15
2023-03-12T12:47:31.442Z,1.40
2023-03-12T12:50:02.325Z,1.20
2023-03-12T12:52:32.211Z,1.27
2023-03-12T12:55:08.112Z,1.30
2023-03-12T12:57:43.278Z,1.40
2023-03-12T13:00:37.197Z,1.25
2023-03-12T13:03:05.945Z,1.48
2023-03-12T13:05:46.946Z,1.20
2023-03-12T13:08:35.333Z,1.38
2023-03-12T13:11:17.360Z,1.08
2023-03-12T13:13:52.450Z,1.00
2023-03-12T13:16:33.879Z,1.15
2023-03-12T13:19:06.846Z,1.20
2023-03-12T13:21:41.588Z,1.27
2023-03-12T13:24:20.984Z,1.30
2023-03-12T13:26:56.045Z,1.10
2023-03-12T13:29:38.663Z,1.20
2023-03-12T13:32:10.741Z,1.23
2023-03-12T13:34:48.633Z,1.15
2023-03-12T13:37:44.877Z,0.93
2023-03-12T13:40:54.642Z,1.17
2023-03-12T13:43:42.321Z,1.27
2023-03-12T13:46:38.150Z,1.13
2023-03-12T13:49:13.448Z,0.90
2023-03-12T13:51:48.208Z,1.17
2023-03-12T13:54:19.646Z,1.00
2023-03-12T13:56:58.069Z,0.98
2023-03-12T13:59:28.566Z,0.98
2023-03-12T14:02:02.905Z,1.20
2023-03-12T14:04:36.165Z,1.05
2023-03-12T14:07:29.792Z,0.98
2023-03-12T14:10:09.778Z,1.10
2023-03-12T14:12:50.028Z,0.90
2023-03-12T14:15:28.844Z,0.90
2023-03-12T14:18:01.974Z,0.90
2023-03-12T14:23:05.289Z,0.88
2023-03-12T14:25:37.222Z,1.00
2023-03-12T14:28:12.521Z,1.17
2023-03-12T14:30:49.754Z,1.15
2023-03-12T14:33:20.062Z,1.10
2023-03-12T14:35:52.342Z,0.85
2023-03-12T14:38:30.926Z,1.20
2023-03-12T14:41:04.552Z,1.20
2023-03-12T14:43:35.410Z,0.90
2023-03-12T14:46:06.601Z,1.02
2023-03-12T14:48:38.051Z,1.10
2023-03-12T14:51:08.455Z,0.88
2023-03-12T14:53:38.070Z,0.90
2023-03-12T14:56:08.620Z,1.00
2023-03-12T14:58:44.274Z,0.80
2023-03-12T15:01:15.468Z,0.95
2023-03-12T15:03:49.386Z,0.93
2023-03-12T15:06:24.025Z,0.80
2023-03-12T15:08:52.290Z,1.00
2023-03-12T15:11:25.640Z,0.70
2023-03-12T15:16:23.425Z,0.95
2023-03-12T15:18:53.844Z,0.80
2023-03-12T15:21:22.798Z,0.98
2023-03-12T15:23:51.619Z,0.80
2023-03-12T15:26:30.326Z,0.82
2023-03-12T15:29:00.571Z,0.85
2023-03-12T15:31:29.462Z,0.80
2023-03-12T15:34:04.158Z,0.90
2023-03-12T15:36:33.726Z,1.00
2023-03-12T15:39:05.632Z,0.90
2023-03-12T15:41:47.824Z,0.90
2023-03-12T15:44:22.182Z,0.93
2023-03-12T15:46:53.113Z,0.90
2023-03-12T15:49:28.489Z,0.70
2023-03-12T15:52:01.557Z,1.00
2023-03-12T15:57:19.476Z,1.10
2023-03-12T16:00:09.009Z,1.20
2023-03-12T16:02:38.617Z,1.00
2023-03-12T16:05:09.015Z,1.10
2023-03-12T16:07:37.160Z,1.00
2023-03-12T16:10:08.189Z,0.95
2023-03-12T16:12:38.188Z,1.20
2023-03-12T16:15:07.373Z,0.85
2023-03-12T16:17:35.478Z,0.90
2023-03-12T16:20:05.927Z,0.93
2023-03-12T16:22:36.942Z,1.00
2023-03-12T16:25:05.403Z,1.00
2023-03-12T16:27:39.015Z,0.90
2023-03-12T16:30:13.874Z,1.10
2023-03-12T16:32:42.073Z,1.00
2023-03-12T16:35:14.552Z,1.20
2023-03-12T16:37:44.415Z,0.90
2023-03-12T16:40:23.970Z,1.10
2023-03-12T16:43:02.576Z,1.00
2023-03-12T16:45:31.957Z,1.27
2023-03-12T16:48:01.583Z,1.08
2023-03-12T16:50:30.070Z,1.23
2023-03-12T16:52:59.913Z,1.20
2023-03-12T16:55:30.806Z,1.30
2023-03-12T16:58:01.941Z,1.13
2023-03-12T17:00:32.048Z,1.30
2023-03-12T17:03:00.816Z,1.05
2023-03-12T17:05:30.790Z,1.20
2023-03-12T17:08:00.333Z,0.95
2023-03-12T17:10:29.581Z,1.30
2023-03-12T17:12:57.835Z,1.40
2023-03-12T17:15:28.336Z,1.05
2023-03-12T17:17:56.881Z,1.35
2023-03-12T17:20:25.735Z,1.38
2023-03-12T17:22:53.926Z,1.30
2023-03-12T17:25:26.328Z,1.30
2023-03-12T17:27:56.410Z,1.10
2023-03-12T17:30:25.275Z,1.35
2023-03-12T17:33:01.274Z,1.33
2023-03-12T17:35:29.582Z,1.10
2023-03-12T17:37:58.083Z,0.90
2023-03-12T17:40:28.833Z,1.17
2023-03-12T17:42:57.109Z,1.20
2023-03-12T17:45:25.753Z,1.20
2023-03-12T17:47:53.900Z,1.27
2023-03-12T17:50:22.201Z,1.30
2023-03-12T17:52:50.367Z,1.33
2023-03-12T17:55:18.719Z,1.10
2023-03-12T17:57:48.337Z,1.27
2023-03-12T18:00:17.681Z,1.35
2023-03-12T18:02:45.709Z,1.00
2023-03-12T18:05:13.971Z,1.30
2023-03-12T18:07:42.396Z,1.40
2023-03-12T18:10:12.231Z,1.80
2023-03-12T18:12:40.902Z,1.40
2023-03-12T18:15:13.407Z,1.33
2023-03-12T18:17:43.112Z,1.27
2023-03-12T18:20:16.656Z,1.48
2023-03-12T18:22:47.733Z,1.58
2023-03-12T18:25:15.880Z,1.55
2023-03-12T18:27:44.059Z,1.33
2023-03-12T18:30:14.814Z,1.30
2023-03-12T18:32:43.199Z,1.52
2023-03-12T18:35:11.493Z,1.40
2023-03-12T18:37:39.606Z,1.40
2023-03-12T18:40:10.137Z,1.48
2023-03-12T18:42:44.164Z,1.50
2023-03-12T18:45:14.312Z,1.40
2023-03-12T18:47:44.973Z,1.77
2023-03-12T18:50:13.961Z,1.35
2023-03-12T18:52:42.091Z,2.03
2023-03-12T18:55:15.238Z,1.30
2023-03-12T18:57:43.899Z,1.63
2023-03-12T19:00:17.684Z,1.42
2023-03-12T19:02:47.851Z,1.58
2023-03-12T19:05:16.881Z,1.70
2023-03-12T19:07:45.384Z,1.83
2023-03-12T19:10:14.590Z,1.58
2023-03-12T19:12:52.543Z,1.70
2023-03-12T19:15:24.021Z,1.75
2023-03-12T19:17:52.694Z,1.50
2023-03-12T19:20:21.668Z,1.42
2023-03-12T19:22:49.911Z,1.35
2023-03-12T19:25:18.188Z,1.40
2023-03-12T19:27:46.280Z,1.80
2023-03-12T19:30:15.737Z,1.67
2023-03-12T19:32:45.444Z,1.58
2023-03-12T19:35:15.464Z,1.60
2023-03-12T19:37:43.692Z,1.70
2023-03-12T19:40:13.321Z,1.80
2023-03-12T19:42:41.548Z,1.90
2023-03-12T19:45:10.860Z,2.10
2023-03-12T19:47:39.089Z,1.75
2023-03-12T19:50:11.150Z,1.92
2023-03-12T19:55:12.153Z,1.90
2023-03-12T19:57:40.633Z,2.33
2023-03-12T20:00:12.271Z,2.30
2023-03-12T20:02:41.208Z,2.58
2023-03-12T20:05:11.590Z,2.85
2023-03-12T20:07:40.179Z,2.55
2023-03-12T20:10:10.938Z,3.33
2023-03-12T20:12:40.717Z,3.10
2023-03-12T20:15:09.570Z,3.35
2023-03-12T20:17:37.686Z,3.35
2023-03-12T20:20:07.993Z,3.70
2023-03-12T20:22:37.768Z,3.70
2023-03-12T20:25:07.265Z,3.55
2023-03-12T20:27:35.549Z,4.22
2023-03-12T20:30:04.752Z,4.10
2023-03-12T20:32:32.962Z,4.88
2023-03-12T20:35:01.125Z,4.57
2023-03-12T20:37:29.425Z,4.30
2023-03-12T20:39:58.925Z,4.30
2023-03-12T20:42:27.182Z,4.30
2023-03-12T20:44:55.380Z,4.63
2023-03-12T20:47:24.308Z,4.50
2023-03-12T20:49:52.890Z,4.80
2023-03-12T20:52:21.085Z,4.60
2023-03-12T20:54:49.184Z,4.85
2023-03-12T20:57:18.802Z,5.05
2023-03-12T20:59:48.501Z,5.10
2023-03-12T21:02:17.096Z,5.15
2023-03-12T21:04:45.362Z,5.35
2023-03-12T21:07:13.742Z,5.35
2023-03-12T21:09:42.271Z,5.53
2023-03-12T21:12:10.476Z,5.35
2023-03-12T21:14:40.919Z,5.95
2023-03-12T21:17:13.441Z,5.90
2023-03-12T21:19:44.498Z,6.00
2023-03-12T21:22:13.134Z,5.70
2023-03-12T21:24:41.245Z,6.10
2023-03-12T21:27:11.427Z,6.60
2023-03-12T21:29:44.152Z,6.10
2023-03-12T21:32:12.387Z,5.97
2023-03-12T21:34:40.418Z,6.72
2023-03-12T21:37:08.476Z,6.20
2023-03-12T21:39:38.220Z,6.53
2023-03-12T21:42:06.513Z,7.07
2023-03-12T21:44:36.499Z,7.03
2023-03-12T21:47:06.584Z,7.15
2023-03-12T21:49:35.540Z,6.93
2023-03-12T21:52:04.463Z,6.68
2023-03-12T21:54:33.773Z,7.22
2023-03-12T21:57:03.086Z,7.30
2023-03-12T21:59:32.027Z,7.25
2023-03-12T22:02:00.402Z,7.25
2023-03-12T22:04:30.126Z,7.07
2023-03-12T22:06:58.299Z,6.65
2023-03-12T22:09:26.760Z,7.95
2023-03-12T22:11:54.958Z,7.68
2023-03-12T22:14:24.135Z,7.10
2023-03-12T22:16:52.268Z,6.80
2023-03-12T22:19:21.524Z,7.07
2023-03-12T22:21:51.114Z,7.20
2023-03-12T22:24:19.161Z,8.23
2023-03-12T22:26:47.538Z,7.40
2023-03-12T22:29:15.591Z,7.65
2023-03-12T22:31:43.711Z,7.10
2023-03-12T22:34:11.769Z,7.47
2023-03-12T22:36:40.223Z,7.45
2023-03-12T22:39:10.085Z,7.63
2023-03-12T22:41:38.265Z,7.28
2023-03-12T22:44:09.078Z,7.43
2023-03-12T22:46:37.510Z,7.38
2023-03-12T22:49:06.028Z,7.80
2023-03-12T22:51:34.686Z,7.10
2023-03-12T22:54:03.093Z,6.90
2023-03-12T22:56:32.514Z,7.18
2023-03-12T22:59:00.601Z,6.82
2023-03-12T23:01:28.747Z,6.75
2023-03-12T23:03:56.831Z,7.10
2023-03-12T23:06:26.548Z,6.80
2023-03-12T23:08:55.796Z,6.32
2023-03-12T23:11:25.453Z,7.40
2023-03-12T23:13:55.702Z,6.53
2023-03-12T23:16:26.471Z,6.72
2023-03-12T23:18:56.225Z,6.82
2023-03-12T23:21:24.963Z,7.28
2023-03-12T23:23:54.001Z,6.72
2023-03-12T23:26:24.521Z,6.22
2023-03-12T23:28:54.387Z,6.43
2023-03-12T23:31:23.617Z,6.40
2023-03-12T23:33:52.121Z,6.35
2023-03-12T23:36:21.797Z,6.10
2023-03-12T23:38:50.680Z,6.35
2023-03-12T23:41:20.569Z,6.00
2023-03-12T23:43:49.045Z,5.60
2023-03-12T23:46:19.375Z,5.88
2023-03-12T23:48:47.685Z,5.97
2023-03-12T23:51:20.020Z,5.50
2023-03-12T23:56:19.894Z,5.38
2023-03-12T23:58:49.089Z,6.18
